createdAt,value
2023-03-27T00:07:49.944Z,99480.97
2023-03-27T00:17:51.725Z,99502.78
2023-03-27T00:27:54.361Z,99523.47
2023-03-27T00:37:56.054Z,99544.19
2023-03-27T00:47:57.402Z,99566.06
2023-03-27T00:57:58.770Z,99580.94
2023-03-27T01:08:01.806Z,99597.66
2023-03-27T01:18:03.336Z,99637.69
2023-03-27T01:28:04.829Z,99650.72
2023-03-27T01:38:06.093Z,99669.84
2023-03-27T01:48:07.390Z,99704.69
2023-03-27T01:58:08.881Z,99726.44
2023-03-27T02:08:10.527Z,99753.34
2023-03-27T02:18:12.181Z,99767.28
2023-03-27T02:28:13.462Z,99778.53
2023-03-27T02:38:14.766Z,99805.44
2023-03-27T02:48:16.247Z,99836.59
2023-03-27T02:58:17.504Z,99857.41
2023-03-27T03:08:21.630Z,99879.91
2023-03-27T03:18:23.159Z,99914.53
2023-03-27T03:28:27.440Z,99973.19
2023-03-27T03:38:29.878Z,99989.56
2023-03-27T03:48:39.489Z,100013.56
2023-03-27T03:58:40.712Z,100047.94
2023-03-27T04:08:42.227Z,100069.31
2023-03-27T04:18:43.759Z,100111.59
2023-03-27T04:28:45.223Z,100137.44
2023-03-27T04:38:47.993Z,100152.22
2023-03-27T04:48:49.340Z,100168.53
2023-03-27T04:58:51.007Z,100205.63
2023-03-27T05:08:52.420Z,100238.22
2023-03-27T05:18:56.832Z,100269.19
2023-03-27T05:28:59.480Z,100300.19
2023-03-27T05:39:01.906Z,100312.97
2023-03-27T05:49:04.420Z,100337.06
2023-03-27T05:59:05.774Z,100366.22
2023-03-27T06:09:09.725Z,100394.66
2023-03-27T06:19:11.006Z,100411.28
2023-03-27T06:29:12.293Z,100430.66
2023-03-27T06:39:13.557Z,100457.75
2023-03-27T06:49:15.129Z,100461.44
2023-03-27T06:59:16.745Z,100487.41
2023-03-27T07:09:18.024Z,100512.38
2023-03-27T07:19:19.278Z,100523.50
2023-03-27T07:29:20.962Z,100545.50
2023-03-27T07:39:22.263Z,100576.72
2023-03-27T07:49:39.044Z,100597.41
2023-03-27T07:59:41.507Z,100601.41
2023-03-27T08:09:42.796Z,100606.78
2023-03-27T08:19:46.308Z,100624.19
2023-03-27T08:29:47.835Z,100629.84
2023-03-27T08:39:49.172Z,100655.59
2023-03-27T08:49:50.812Z,100656.56
2023-03-27T08:59:52.239Z,100658.81
2023-03-27T09:09:55.513Z,100668.31
2023-03-27T09:19:57.053Z,100665.31
2023-03-27T09:30:05.549Z,100677.63
2023-03-27T09:40:13.616Z,100681.19
2023-03-27T09:50:15.277Z,100694.59
2023-03-27T10:00:16.737Z,100687.50
2023-03-27T10:10:19.770Z,100683.22
2023-03-27T10:20:21.537Z,100681.34
2023-03-27T10:30:22.837Z,100687.63
2023-03-27T10:40:24.086Z,100686.81
2023-03-27T10:50:26.422Z,100702.38
2023-03-27T11:00:32.617Z,100722.34
2023-03-27T11:10:33.850Z,100741.06
2023-03-27T12:03:28.941Z,100677.06
2023-03-27T12:35:03.666Z,100750.84
2023-03-27T12:45:04.934Z,100720.25
2023-03-27T12:55:06.187Z,100712.38
2023-03-27T13:05:16.379Z,100707.94
2023-03-27T13:15:26.051Z,100711.31
2023-03-27T13:25:27.328Z,100713.66
2023-03-27T13:35:28.805Z,100700.72
2023-03-27T13:45:30.216Z,100695.41
2023-03-27T13:55:34.558Z,100707.28
2023-03-27T14:05:36.330Z,100733.34
2023-03-27T14:15:37.695Z,100738.44
2023-03-27T14:26:37.861Z,100751.75
2023-03-27T14:36:42.460Z,100746.06
2023-03-27T14:46:45.046Z,100736.69
2023-03-27T14:56:47.733Z,100739.34
2023-03-27T15:06:49.978Z,100769.03
2023-03-27T15:16:52.820Z,100756.56
2023-03-27T15:26:54.128Z,100737.13
2023-03-27T15:36:55.357Z,100744.34
2023-03-27T15:46:57.770Z,100743.53
2023-03-27T15:57:09.234Z,100750.66
2023-03-27T16:07:13.136Z,100756.78
2023-03-27T16:17:20.810Z,100764.66
2023-03-27T16:27:24.916Z,100761.06
2023-03-27T16:37:26.552Z,100769.84
2023-03-27T16:47:27.842Z,100784.47
2023-03-27T16:57:29.215Z,100809.94
2023-03-27T17:07:30.563Z,100806.13
2023-03-27T17:17:32.030Z,100820.97
2023-03-27T17:27:33.325Z,100828.16
2023-03-27T17:37:34.652Z,100843.47
2023-03-27T17:47:36.171Z,100864.72
2023-03-27T17:57:37.922Z,100891.31
2023-03-27T18:07:39.388Z,100911.16
2023-03-27T18:17:41.483Z,100923.63
2023-03-27T18:27:44.680Z,100932.63
2023-03-27T18:37:46.752Z,100944.25
2023-03-27T18:47:48.040Z,100976.13
2023-03-27T18:57:49.283Z,101000.88
2023-03-27T19:07:51.044Z,101015.94
2023-03-27T19:17:52.338Z,101011.50
2023-03-27T19:27:53.781Z,101010.63
2023-03-27T19:37:55.094Z,101011.28
2023-03-27T19:47:56.577Z,101010.47
2023-03-27T19:57:57.865Z,101019.00
